createdAt,value
2022-10-18T00:03:00.685Z,37.45
2022-10-18T00:06:04.825Z,37.93
2022-10-18T00:09:07.846Z,37.60
2022-10-18T00:12:10.905Z,37.59
2022-10-18T00:15:13.940Z,37.49
2022-10-18T00:18:18.626Z,37.76
2022-10-18T00:21:23.778Z,37.28
2022-10-18T00:24:26.861Z,37.56
2022-10-18T00:27:30.769Z,37.55
2022-10-18T00:30:33.725Z,37.66
2022-10-18T00:33:38.234Z,37.51
2022-10-18T00:36:41.299Z,37.54
2022-10-18T00:39:44.685Z,37.35
2022-10-18T00:42:47.768Z,37.45
2022-10-18T00:45:50.854Z,37.42
2022-10-18T00:48:57.649Z,37.14
2022-10-18T00:52:04.743Z,37.42
2022-10-18T00:55:08.915Z,37.43
2022-10-18T00:58:14.280Z,37.41
2022-10-18T01:01:17.382Z,37.23
2022-10-18T01:04:23.289Z,37.58
2022-10-18T01:07:39.106Z,37.48
2022-10-18T01:10:49.414Z,37.33
2022-10-18T01:14:05.917Z,37.43
2022-10-18T01:17:14.526Z,37.21
2022-10-18T01:21:06.782Z,37.36
2022-10-18T01:28:35.799Z,37.30
2022-10-18T01:31:46.589Z,37.23
2022-10-18T01:34:51.982Z,37.07
2022-10-18T01:37:58.665Z,37.25
2022-10-18T01:41:04.339Z,37.29
2022-10-18T01:44:11.689Z,37.36
2022-10-18T01:47:16.957Z,37.08
2022-10-18T01:50:30.347Z,37.31
2022-10-18T01:53:35.478Z,37.24
2022-10-18T01:56:46.234Z,37.23
2022-10-18T01:59:59.650Z,37.17
2022-10-18T02:03:12.955Z,37.24
2022-10-18T02:06:21.501Z,37.26
2022-10-18T02:09:31.295Z,37.22
2022-10-18T02:12:36.235Z,37.05
2022-10-18T02:15:42.624Z,37.13
2022-10-18T02:18:51.664Z,37.13
2022-10-18T02:21:56.253Z,37.23
2022-10-18T02:25:03.197Z,36.81
2022-10-18T02:28:07.386Z,37.12
2022-10-18T02:31:20.466Z,36.91
2022-10-18T02:34:30.712Z,37.02
2022-10-18T02:37:36.851Z,37.09
2022-10-18T02:40:39.964Z,37.14
2022-10-18T02:43:43.021Z,37.03
2022-10-18T02:46:46.655Z,37.12
2022-10-18T02:49:51.141Z,36.76
2022-10-18T02:52:54.184Z,37.01
2022-10-18T02:55:57.203Z,37.04
2022-10-18T02:59:00.184Z,36.96
2022-10-18T03:02:03.279Z,37.03
2022-10-18T03:05:08.131Z,36.96
2022-10-18T03:08:11.136Z,37.36
2022-10-18T03:11:14.365Z,37.53
2022-10-18T03:14:17.449Z,37.24
2022-10-18T03:17:20.607Z,35.83
2022-10-18T03:20:25.020Z,35.39
2022-10-18T03:23:28.095Z,35.22
2022-10-18T03:26:31.150Z,35.21
2022-10-18T03:29:34.221Z,35.31
2022-10-18T03:32:37.166Z,35.10
2022-10-18T03:35:41.729Z,34.78
2022-10-18T03:38:44.729Z,34.90
2022-10-18T03:41:48.061Z,34.70
2022-10-18T03:44:51.134Z,34.45
2022-10-18T03:47:54.104Z,34.44
2022-10-18T03:50:58.542Z,34.67
2022-10-18T03:54:01.590Z,33.92
2022-10-18T03:57:05.182Z,33.82
2022-10-18T04:00:09.612Z,34.12
2022-10-18T04:03:12.674Z,34.05
2022-10-18T04:06:17.411Z,34.17
2022-10-18T04:09:20.545Z,34.87
2022-10-18T04:12:23.734Z,34.27
2022-10-18T04:15:26.707Z,33.58
2022-10-18T04:18:29.932Z,33.79
2022-10-18T04:21:34.306Z,33.76
2022-10-18T04:24:37.349Z,33.36
2022-10-18T04:27:40.741Z,33.29
2022-10-18T04:30:43.767Z,33.52
2022-10-18T04:33:47.093Z,33.15
2022-10-18T04:36:51.577Z,33.54
2022-10-18T04:39:54.606Z,33.23
2022-10-18T04:42:57.592Z,33.65
2022-10-18T04:46:00.646Z,33.44
2022-10-18T04:49:04.107Z,33.25
2022-10-18T04:52:08.811Z,33.33
2022-10-18T04:55:11.857Z,33.23
2022-10-18T04:58:14.849Z,33.20
2022-10-18T05:01:19.059Z,33.38
2022-10-18T05:04:22.232Z,33.20
2022-10-18T05:07:27.048Z,33.26
2022-10-18T05:10:30.241Z,33.43
2022-10-18T05:13:33.216Z,33.14
2022-10-18T05:16:36.219Z,33.35
2022-10-18T05:19:39.199Z,33.60
2022-10-18T05:22:43.953Z,33.21
2022-10-18T05:25:46.972Z,33.24
2022-10-18T05:28:51.085Z,33.34
2022-10-18T05:31:54.211Z,33.62
2022-10-18T05:34:57.258Z,33.61
2022-10-18T05:38:03.540Z,33.87
2022-10-18T05:41:07.100Z,33.42
2022-10-18T05:44:10.610Z,33.47
2022-10-18T05:47:13.678Z,33.66
2022-10-18T05:50:16.820Z,33.86
2022-10-18T05:53:37.810Z,33.76
2022-10-18T05:56:41.203Z,34.00
2022-10-18T05:59:45.391Z,33.80
2022-10-18T06:02:48.406Z,33.82
2022-10-18T06:05:51.441Z,33.81
2022-10-18T06:08:55.913Z,33.90
2022-10-18T06:11:58.896Z,33.92
2022-10-18T06:15:01.883Z,34.36
2022-10-18T06:18:05.015Z,34.24
2022-10-18T06:21:08.887Z,34.05
2022-10-18T06:24:13.667Z,34.31
2022-10-18T06:27:16.947Z,33.90
2022-10-18T06:30:19.929Z,33.73
2022-10-18T06:33:22.935Z,33.54
2022-10-18T06:36:26.124Z,33.33
2022-10-18T06:39:30.556Z,33.10
2022-10-18T06:42:33.941Z,33.09
2022-10-18T06:45:37.250Z,33.09
2022-10-18T06:48:40.806Z,33.13
2022-10-18T06:51:44.442Z,33.08
2022-10-18T06:54:48.833Z,32.95
2022-10-18T06:57:51.824Z,32.79
2022-10-18T07:00:54.827Z,32.70
2022-10-18T07:03:58.236Z,32.85
2022-10-18T07:07:01.250Z,32.83
2022-10-18T07:10:06.581Z,32.80
2022-10-18T07:16:34.189Z,32.68
2022-10-18T07:19:37.223Z,32.39
2022-10-18T07:22:40.324Z,32.73
2022-10-18T07:25:44.712Z,32.44
2022-10-18T07:28:50.184Z,32.84
2022-10-18T07:31:53.214Z,32.60
2022-10-18T07:34:56.201Z,32.72
2022-10-18T07:37:59.452Z,32.88
2022-10-18T07:41:06.635Z,32.53
2022-10-18T07:44:09.892Z,32.76
2022-10-18T07:47:12.961Z,32.60
2022-10-18T07:50:16.179Z,32.29
2022-10-18T07:53:19.183Z,32.45
2022-10-18T07:56:23.752Z,32.74
2022-10-18T07:59:26.755Z,32.47
2022-10-18T08:02:29.680Z,32.52
2022-10-18T08:08:42.395Z,33.06
2022-10-18T08:11:46.763Z,32.98
2022-10-18T08:14:49.796Z,32.64
2022-10-18T08:17:52.913Z,32.87
2022-10-18T08:20:55.948Z,32.71
2022-10-18T08:23:59.016Z,32.74
2022-10-18T08:27:03.428Z,33.25
2022-10-18T08:30:09.342Z,33.84
2022-10-18T08:33:12.338Z,34.55
2022-10-18T08:36:17.061Z,34.27
2022-10-18T08:39:20.052Z,34.59
2022-10-18T08:42:45.405Z,34.35
2022-10-18T08:45:49.071Z,34.79
2022-10-18T08:48:55.811Z,34.37
2022-10-18T08:51:59.516Z,34.75
2022-10-18T08:55:05.269Z,34.47
2022-10-18T08:58:18.420Z,34.34
2022-10-18T09:01:31.497Z,34.60
2022-10-18T09:04:48.165Z,34.63
2022-10-18T09:08:11.523Z,34.62
2022-10-18T09:11:26.037Z,34.92
2022-10-18T09:14:53.460Z,34.98
2022-10-18T09:18:10.448Z,35.28
2022-10-18T09:21:22.784Z,35.56
2022-10-18T09:24:32.619Z,35.60
2022-10-18T09:27:45.287Z,35.39
2022-10-18T09:31:01.276Z,35.60
2022-10-18T09:34:07.720Z,35.43
2022-10-18T09:37:14.399Z,35.65
2022-10-18T09:40:22.663Z,35.67
2022-10-18T09:43:33.639Z,36.06
2022-10-18T09:46:42.073Z,35.75
2022-10-18T09:49:48.649Z,35.72
2022-10-18T09:52:59.880Z,35.95
2022-10-18T09:56:07.292Z,35.47
2022-10-18T09:59:32.636Z,35.92
2022-10-18T10:02:37.066Z,35.92
2022-10-18T10:05:40.447Z,35.42
2022-10-18T10:08:44.429Z,35.35
2022-10-18T10:11:48.856Z,35.91
2022-10-18T10:14:51.919Z,35.57
2022-10-18T10:18:02.401Z,35.67
2022-10-18T10:21:08.402Z,36.06
2022-10-18T10:24:26.192Z,36.05
2022-10-18T10:27:35.897Z,35.70
2022-10-18T10:30:39.640Z,35.51
2022-10-18T10:33:48.361Z,35.81
2022-10-18T10:36:53.159Z,35.89
2022-10-18T10:40:19.841Z,35.59
2022-10-18T10:43:42.641Z,34.39
2022-10-18T10:46:45.768Z,34.54
2022-10-18T10:49:50.235Z,33.77
2022-10-18T10:52:53.821Z,34.10
2022-10-18T10:55:59.031Z,34.28
2022-10-18T10:59:11.173Z,34.93
2022-10-18T11:02:22.795Z,35.08
2022-10-18T11:05:30.269Z,34.96
2022-10-18T11:08:39.171Z,34.84
2022-10-18T11:11:51.560Z,35.39
2022-10-18T11:15:03.753Z,35.45
2022-10-18T11:18:19.481Z,35.42
2022-10-18T11:21:28.140Z,35.43
2022-10-18T11:24:31.967Z,35.77
2022-10-18T11:27:42.391Z,35.90
2022-10-18T11:30:55.497Z,35.70
2022-10-18T11:34:16.171Z,36.01
2022-10-18T11:37:41.771Z,36.36
2022-10-18T11:40:56.553Z,36.48
2022-10-18T11:44:03.354Z,36.48
2022-10-18T11:47:16.971Z,36.18
2022-10-18T11:50:28.103Z,36.21
2022-10-18T11:53:40.703Z,36.45
2022-10-18T11:56:48.747Z,36.54
2022-10-18T12:00:04.257Z,36.90
2022-10-18T12:03:23.635Z,36.84
2022-10-18T12:06:32.069Z,37.30
2022-10-18T12:09:40.382Z,37.47
2022-10-18T12:12:51.722Z,37.34
2022-10-18T12:15:55.821Z,37.11
2022-10-18T12:19:02.653Z,37.63
2022-10-18T12:22:15.654Z,37.89
2022-10-18T12:25:20.752Z,37.45
2022-10-18T12:28:35.289Z,36.83
2022-10-18T12:31:43.579Z,36.73
2022-10-18T12:34:50.505Z,36.70
2022-10-18T12:38:06.982Z,36.98
2022-10-18T12:41:20.622Z,37.78
2022-10-18T12:44:30.825Z,37.50
2022-10-18T12:47:34.830Z,37.63
2022-10-18T12:50:39.835Z,37.72
2022-10-18T12:53:45.453Z,37.90
2022-10-18T12:56:51.035Z,38.18
2022-10-18T12:59:53.985Z,37.99
2022-10-18T13:03:38.488Z,37.72
2022-10-18T13:07:19.955Z,37.73
2022-10-18T13:10:41.031Z,37.53
2022-10-18T13:13:55.723Z,37.45
2022-10-18T13:17:07.261Z,37.77
2022-10-18T13:20:26.734Z,37.59
2022-10-18T13:23:42.890Z,37.24
2022-10-18T13:27:04.221Z,37.34
2022-10-18T13:30:34.387Z,37.55
2022-10-18T13:33:40.103Z,37.35
2022-10-18T13:36:43.852Z,37.32
2022-10-18T13:39:47.473Z,37.77
2022-10-18T13:42:50.766Z,37.45
2022-10-18T13:45:58.241Z,37.02
2022-10-18T13:49:16.149Z,37.51
2022-10-18T13:52:27.063Z,37.08
2022-10-18T13:55:49.796Z,36.99
2022-10-18T13:59:22.688Z,37.34
2022-10-18T14:03:00.401Z,37.05
2022-10-18T14:06:08.902Z,37.30
2022-10-18T14:09:26.070Z,37.22
2022-10-18T14:12:45.283Z,37.11
2022-10-18T14:15:50.770Z,37.13
2022-10-18T14:19:02.153Z,37.36
2022-10-18T14:22:12.621Z,37.52
2022-10-18T14:25:26.920Z,37.68
2022-10-18T14:28:48.071Z,37.66
2022-10-18T14:31:55.728Z,38.05
2022-10-18T14:35:42.265Z,37.81
2022-10-18T14:38:23.317Z,37.95
2022-10-18T14:41:29.711Z,38.20
2022-10-18T14:44:34.891Z,37.81
2022-10-18T14:47:38.682Z,37.74
2022-10-18T14:50:44.245Z,37.59
2022-10-18T14:53:49.032Z,37.70
2022-10-18T14:56:52.235Z,37.67
2022-10-18T14:59:59.575Z,37.48
2022-10-18T15:03:04.441Z,37.65
2022-10-18T15:06:09.650Z,37.81
2022-10-18T15:09:14.151Z,37.67
2022-10-18T15:12:19.506Z,37.43
2022-10-18T15:15:26.604Z,37.45
2022-10-18T15:21:37.162Z,36.94
2022-10-18T15:24:41.560Z,37.53
2022-10-18T15:27:47.555Z,38.21
2022-10-18T15:30:50.637Z,37.72
2022-10-18T15:33:54.889Z,38.19
2022-10-18T15:36:59.325Z,38.01
2022-10-18T15:40:32.869Z,38.33
2022-10-18T15:43:37.949Z,38.53
2022-10-18T15:46:41.184Z,38.57
2022-10-18T15:49:55.348Z,38.14
2022-10-18T15:53:40.616Z,38.28
2022-10-18T15:56:44.858Z,38.21
2022-10-18T15:59:53.560Z,38.28
2022-10-18T16:02:56.593Z,38.49
2022-10-18T16:06:04.611Z,38.20
2022-10-18T16:09:14.096Z,37.95
2022-10-18T16:12:17.167Z,37.58
2022-10-18T16:15:20.396Z,37.60
2022-10-18T16:18:25.175Z,37.43
2022-10-18T16:21:31.339Z,37.71
2022-10-18T16:24:35.729Z,37.29
2022-10-18T16:27:38.752Z,37.21
2022-10-18T16:30:44.698Z,35.97
2022-10-18T16:33:48.333Z,33.78
2022-10-18T16:36:51.377Z,32.10
2022-10-18T16:39:55.798Z,32.20
2022-10-18T16:42:58.822Z,33.31
2022-10-18T16:46:02.451Z,30.70
2022-10-18T16:49:06.818Z,31.55
2022-10-18T16:52:09.869Z,30.73
2022-10-18T16:55:21.403Z,31.14
2022-10-18T16:58:25.124Z,32.08
2022-10-18T17:01:28.714Z,31.79
2022-10-18T17:04:31.740Z,32.06
2022-10-18T17:07:34.762Z,33.24
2022-10-18T17:10:39.154Z,32.54
2022-10-18T17:13:42.559Z,32.65
2022-10-18T17:16:48.720Z,32.67
2022-10-18T17:19:56.371Z,33.03
2022-10-18T17:22:59.499Z,33.47
2022-10-18T17:26:26.221Z,33.53
2022-10-18T17:29:27.040Z,34.15
2022-10-18T17:32:30.508Z,34.28
2022-10-18T17:35:33.872Z,34.53
2022-10-18T17:38:36.933Z,34.69
2022-10-18T17:41:41.349Z,35.09
2022-10-18T17:44:44.475Z,34.85
2022-10-18T17:47:47.847Z,35.08
2022-10-18T17:50:50.905Z,34.96
2022-10-18T17:53:54.984Z,35.49
2022-10-18T17:56:59.411Z,36.09
2022-10-18T18:00:03.223Z,36.21
2022-10-18T18:03:06.503Z,36.43
2022-10-18T18:06:17.790Z,36.43
2022-10-18T18:09:21.282Z,36.64
2022-10-18T18:12:25.669Z,36.72
2022-10-18T18:15:28.884Z,36.19
2022-10-18T18:18:31.882Z,36.30
2022-10-18T18:21:35.742Z,35.72
2022-10-18T18:27:42.871Z,35.91
2022-10-18T18:30:45.820Z,36.18
2022-10-18T18:33:48.826Z,36.51
2022-10-18T18:36:51.987Z,36.51
2022-10-18T18:39:55.040Z,36.92
2022-10-18T18:43:19.049Z,36.97
2022-10-18T18:46:23.263Z,37.11
2022-10-18T18:49:27.970Z,36.41
2022-10-18T18:52:31.349Z,35.97
2022-10-18T18:55:39.710Z,35.85
2022-10-18T18:58:45.546Z,36.21
2022-10-18T19:01:48.605Z,35.52
2022-10-18T19:04:51.893Z,35.79
2022-10-18T19:07:54.991Z,35.79
2022-10-18T19:10:57.997Z,35.62
2022-10-18T19:14:03.358Z,35.73
2022-10-18T19:17:07.981Z,35.76
2022-10-18T19:20:12.812Z,35.49
2022-10-18T19:23:16.295Z,35.84
2022-10-18T19:26:32.063Z,35.73
2022-10-18T19:29:39.164Z,35.79
2022-10-18T19:32:42.161Z,35.67
2022-10-18T19:35:45.303Z,35.50
2022-10-18T19:38:48.409Z,35.72
2022-10-18T19:41:53.196Z,35.51
2022-10-18T19:44:57.713Z,35.61
2022-10-18T19:48:00.704Z,35.78
2022-10-18T19:51:09.443Z,35.70
2022-10-18T19:54:14.303Z,35.86
2022-10-18T19:57:17.302Z,35.66
2022-10-18T20:00:21.790Z,35.74
2022-10-18T20:03:26.062Z,35.41
2022-10-18T20:06:29.111Z,35.58
2022-10-18T20:09:32.450Z,35.45
2022-10-18T20:12:36.469Z,35.50
2022-10-18T20:15:40.837Z,35.44
2022-10-18T20:18:44.335Z,35.54
2022-10-18T20:21:47.349Z,35.45
2022-10-18T20:24:50.395Z,35.52
2022-10-18T20:27:53.439Z,35.46
2022-10-18T20:31:05.844Z,35.50
2022-10-18T20:34:12.306Z,35.10
2022-10-18T20:37:15.786Z,35.36
2022-10-18T20:40:19.022Z,35.28
2022-10-18T20:43:22.023Z,35.11
2022-10-18T20:46:27.506Z,35.47
2022-10-18T20:49:30.588Z,35.14
2022-10-18T20:52:33.766Z,35.27
2022-10-18T20:55:38.796Z,35.21
2022-10-18T20:58:45.520Z,34.84
2022-10-18T21:01:50.007Z,35.21
2022-10-18T21:04:53.422Z,35.06
2022-10-18T21:07:56.486Z,35.18
2022-10-18T21:11:02.152Z,35.12
2022-10-18T21:14:06.382Z,35.12
2022-10-18T21:17:10.778Z,35.04
2022-10-18T21:20:13.814Z,35.13
2022-10-18T21:23:17.133Z,35.23
2022-10-18T21:26:21.998Z,35.00
2022-10-18T21:29:25.735Z,35.24
2022-10-18T21:32:30.326Z,35.23
2022-10-18T21:35:36.291Z,35.32
2022-10-18T21:38:39.562Z,35.24
2022-10-18T21:41:42.946Z,35.11
2022-10-18T21:44:45.974Z,35.20
2022-10-18T21:47:50.510Z,35.17
2022-10-18T21:50:53.534Z,35.26
2022-10-18T21:53:58.184Z,35.06
2022-10-18T21:57:01.189Z,34.99
2022-10-18T22:00:06.651Z,35.20
2022-10-18T22:03:12.855Z,35.01
2022-10-18T22:06:16.836Z,34.93
2022-10-18T22:09:21.271Z,35.01
2022-10-18T22:12:24.296Z,34.88
2022-10-18T22:15:27.492Z,34.91
2022-10-18T22:18:33.125Z,35.00
2022-10-18T22:21:36.465Z,34.91
2022-10-18T22:24:39.594Z,34.98
2022-10-18T22:27:42.612Z,34.95
2022-10-18T22:30:45.575Z,35.06
2022-10-18T22:33:54.174Z,35.03
2022-10-18T22:36:57.374Z,34.97
2022-10-18T22:40:00.399Z,35.07
2022-10-18T22:43:03.402Z,34.93
2022-10-18T22:46:08.738Z,35.22
2022-10-18T22:49:13.503Z,35.05
2022-10-18T22:52:16.502Z,35.24
2022-10-18T22:55:19.518Z,35.34
2022-10-18T22:58:22.871Z,35.15
2022-10-18T23:01:26.087Z,35.06
2022-10-18T23:04:30.510Z,35.14
2022-10-18T23:07:33.566Z,35.06
2022-10-18T23:10:37.928Z,35.01
2022-10-18T23:13:40.954Z,35.02
2022-10-18T23:16:44.484Z,34.94
2022-10-18T23:19:48.984Z,35.02
2022-10-18T23:22:52.353Z,35.25
2022-10-18T23:25:55.408Z,35.19
2022-10-18T23:28:58.602Z,35.19
2022-10-18T23:32:01.697Z,35.09
2022-10-18T23:35:06.876Z,35.36
2022-10-18T23:38:09.873Z,35.07
2022-10-18T23:41:14.816Z,35.09
2022-10-18T23:44:17.794Z,35.17
2022-10-18T23:47:21.198Z,34.94
2022-10-18T23:50:25.747Z,35.47
2022-10-18T23:53:29.390Z,35.26
2022-10-18T23:56:32.406Z,35.48
2022-10-18T23:59:35.411Z,35.98
